createdAt,value
2018-12-26T00:03:34.411Z,16.23
2018-12-26T00:09:11.614Z,14.47
2018-12-26T00:14:50.257Z,20.73
2018-12-26T00:17:39.632Z,24.07
2018-12-26T00:20:22.138Z,18.37
2018-12-26T00:26:01.751Z,22.17
2018-12-26T00:34:37.237Z,24.63
2018-12-26T00:37:26.601Z,23.07
2018-12-26T00:40:08.383Z,26.07
2018-12-26T00:42:58.036Z,26.57
2018-12-26T00:45:39.899Z,29.40
2018-12-26T00:48:30.148Z,26.48
2018-12-26T00:54:08.874Z,28.30
2018-12-26T00:56:39.446Z,30.00
2018-12-26T01:05:15.099Z,30.75
2018-12-26T01:11:08.692Z,33.43
2018-12-26T01:13:50.708Z,34.77
2018-12-26T01:19:28.578Z,33.87
2018-12-26T01:25:07.941Z,33.77
2018-12-26T01:27:57.657Z,33.70
2018-12-26T01:30:39.756Z,36.33
2018-12-26T01:33:29.139Z,39.90
2018-12-26T01:36:10.752Z,37.23
2018-12-26T01:44:48.918Z,34.27
2018-12-26T01:50:39.559Z,33.47
2018-12-26T01:53:21.963Z,31.00
2018-12-26T01:56:11.351Z,34.17
2018-12-26T01:58:53.103Z,35.93
2018-12-26T02:01:42.499Z,34.90
2018-12-26T02:04:25.257Z,34.03
2018-12-26T02:10:03.359Z,34.70
2018-12-26T02:15:41.362Z,34.33
2018-12-26T02:18:30.785Z,32.42
2018-12-26T02:21:13.554Z,36.33
2018-12-26T02:24:03.219Z,31.13
2018-12-26T02:29:42.047Z,32.87
2018-12-26T02:32:24.146Z,33.70
2018-12-26T02:38:00.303Z,35.53
2018-12-26T02:40:49.723Z,35.60
2018-12-26T02:43:34.237Z,36.33
2018-12-26T02:46:23.633Z,34.30
2018-12-26T02:54:55.866Z,31.97
2018-12-26T02:57:45.549Z,34.23
2018-12-26T03:00:27.907Z,34.53
2018-12-26T03:03:17.300Z,36.13
2018-12-26T03:05:59.323Z,35.17
2018-12-26T03:08:48.750Z,35.43
2018-12-26T03:11:36.972Z,36.00
2018-12-26T03:14:19.054Z,36.87
2018-12-26T03:20:09.207Z,36.87
2018-12-26T03:26:00.116Z,38.87
2018-12-26T03:28:49.836Z,39.10
2018-12-26T03:31:32.162Z,37.87
2018-12-26T03:37:22.463Z,38.07
2018-12-26T03:40:12.086Z,38.50
2018-12-26T03:42:53.795Z,36.75
2018-12-26T03:48:45.060Z,38.87
2018-12-26T03:51:34.557Z,40.60
2018-12-26T03:54:16.518Z,39.80
2018-12-26T03:57:05.775Z,39.87
2018-12-26T04:02:37.625Z,39.07
2018-12-26T04:08:14.386Z,40.53
2018-12-26T04:13:51.886Z,40.37
2018-12-26T04:16:41.385Z,40.93
2018-12-26T04:19:23.958Z,38.43
2018-12-26T04:25:02.807Z,36.77
2018-12-26T04:30:39.922Z,39.20
2018-12-26T04:33:29.321Z,37.73
2018-12-26T04:36:11.672Z,35.60
2018-12-26T04:39:01.007Z,38.83
2018-12-26T04:41:42.828Z,36.30
2018-12-26T04:47:21.092Z,38.38
2018-12-26T04:50:10.447Z,39.37
2018-12-26T04:52:52.256Z,38.75
2018-12-26T04:55:37.783Z,40.03
2018-12-26T05:01:27.889Z,40.00
2018-12-26T05:07:22.783Z,42.83
2018-12-26T05:16:00.292Z,40.70
2018-12-26T05:21:36.906Z,46.37
2018-12-26T05:24:26.411Z,46.77
2018-12-26T05:27:08.053Z,45.77
2018-12-26T05:29:57.463Z,49.00
2018-12-26T05:32:40.072Z,47.60
2018-12-26T05:38:17.306Z,54.27
2018-12-26T05:41:07.185Z,51.07
2018-12-26T05:43:49.226Z,53.13
2018-12-26T05:46:38.609Z,52.60
2018-12-26T05:49:20.934Z,53.40
2018-12-26T05:52:29.286Z,53.27
2018-12-26T05:55:11.775Z,50.90
2018-12-26T05:57:54.192Z,57.13
2018-12-26T06:00:43.813Z,53.78
2018-12-26T06:03:26.309Z,58.40
2018-12-26T06:06:15.802Z,52.47
2018-12-26T06:08:57.804Z,52.07
2018-12-26T06:14:53.233Z,52.40
2018-12-26T06:17:42.888Z,53.00
2018-12-26T06:20:24.937Z,52.90
2018-12-26T06:26:15.455Z,52.73
2018-12-26T06:29:04.782Z,54.05
2018-12-26T06:31:46.754Z,50.77
2018-12-26T06:34:36.081Z,57.97
2018-12-26T06:37:18.526Z,56.18
2018-12-26T06:40:07.816Z,56.33
2018-12-26T06:42:52.036Z,57.57
2018-12-26T06:45:41.394Z,59.20
2018-12-26T06:48:23.538Z,56.48
2018-12-26T06:54:13.544Z,53.07
2018-12-26T06:56:55.831Z,61.40
2018-12-26T07:02:34.361Z,54.77
2018-12-26T07:05:23.872Z,54.07
2018-12-26T07:08:05.885Z,52.65
2018-12-26T07:13:44.881Z,50.47
2018-12-26T07:19:22.907Z,47.55
2018-12-26T07:22:12.581Z,45.80
2018-12-26T07:24:54.792Z,44.60
2018-12-26T07:30:32.156Z,41.03
2018-12-26T07:33:21.827Z,47.43
2018-12-26T07:36:03.508Z,43.33
2018-12-26T07:38:33.816Z,43.37
2018-12-26T07:41:23.252Z,43.60
2018-12-26T07:44:12.628Z,44.97
2018-12-26T07:49:47.835Z,48.43
2018-12-26T07:55:39.862Z,45.93
2018-12-26T07:58:22.378Z,42.20
2018-12-26T08:01:08.372Z,42.97
2018-12-26T08:06:59.524Z,43.60
2018-12-26T08:09:48.879Z,42.83
2018-12-26T08:12:30.794Z,43.43
2018-12-26T08:18:25.389Z,42.50
2018-12-26T08:21:14.755Z,41.07
2018-12-26T08:23:57.350Z,41.33
2018-12-26T08:26:46.989Z,46.17
2018-12-26T08:29:32.913Z,43.90
2018-12-26T08:32:22.759Z,45.13
2018-12-26T08:35:05.066Z,43.87
2018-12-26T08:40:56.065Z,43.83
2018-12-26T08:43:45.606Z,41.93
2018-12-26T08:46:31.912Z,44.53
2018-12-26T08:52:22.321Z,40.37
2018-12-26T08:55:12.017Z,42.03
2018-12-26T08:57:54.277Z,42.00
2018-12-26T09:00:39.525Z,41.85
2018-12-26T09:03:29.385Z,40.93
2018-12-26T09:05:59.591Z,39.23
2018-12-26T09:08:49.001Z,38.73
2018-12-26T09:11:38.639Z,38.63
2018-12-26T09:14:21.434Z,37.73
2018-12-26T09:20:11.807Z,39.00
2018-12-26T09:23:01.158Z,35.73
2018-12-26T09:25:44.908Z,35.92
2018-12-26T09:28:34.234Z,39.03
2018-12-26T09:31:16.929Z,35.78
2018-12-26T09:37:08.970Z,36.65
2018-12-26T09:39:58.564Z,37.87
2018-12-26T09:42:40.243Z,35.33
2018-12-26T09:48:31.353Z,37.07
2018-12-26T09:54:22.334Z,38.73
2018-12-26T09:57:11.988Z,36.60
2018-12-26T09:59:54.616Z,37.47
2018-12-26T10:02:43.977Z,39.77
2018-12-26T10:05:26.270Z,38.03
2018-12-26T10:08:15.522Z,37.60
2018-12-26T10:10:58.462Z,37.47
2018-12-26T10:13:47.732Z,39.57
2018-12-26T10:16:31.477Z,35.52
2018-12-26T10:22:22.304Z,39.93
2018-12-26T10:28:13.482Z,38.67
2018-12-26T10:31:02.960Z,39.07
2018-12-26T10:33:45.742Z,36.53
2018-12-26T10:39:36.131Z,38.63
2018-12-26T10:45:27.618Z,35.83
2018-12-26T10:48:17.505Z,38.33
2018-12-26T10:50:59.974Z,36.97
2018-12-26T10:53:49.309Z,35.57
2018-12-26T10:56:33.366Z,38.70
2018-12-26T10:59:22.780Z,36.80
2018-12-26T11:04:59.619Z,40.40
2018-12-26T11:10:37.415Z,37.70
2018-12-26T11:16:14.396Z,38.87
2018-12-26T11:19:04.057Z,42.75
2018-12-26T11:21:46.610Z,50.85
2018-12-26T11:27:30.862Z,52.33
2018-12-26T11:33:08.574Z,53.27
2018-12-26T11:38:45.846Z,54.10
2018-12-26T11:41:35.513Z,56.50
2018-12-26T11:44:17.322Z,59.03
2018-12-26T11:47:06.727Z,54.97
2018-12-26T11:49:49.234Z,57.33
2018-12-26T11:52:19.704Z,57.50
2018-12-26T11:55:09.382Z,55.13
2018-12-26T11:57:58.727Z,56.90
2018-12-26T12:00:41.099Z,56.43
2018-12-26T12:06:19.445Z,60.10
2018-12-26T12:11:57.167Z,71.17
2018-12-26T12:14:46.705Z,73.03
2018-12-26T12:17:28.491Z,74.00
2018-12-26T12:19:58.779Z,73.53
2018-12-26T12:22:48.461Z,79.20
2018-12-26T12:28:25.294Z,72.73
2018-12-26T12:31:14.720Z,78.60
2018-12-26T12:33:56.586Z,76.57
2018-12-26T12:36:46.023Z,84.43
2018-12-26T12:39:16.273Z,75.27
2018-12-26T12:42:19.165Z,77.90
2018-12-26T12:44:49.260Z,79.00
2018-12-26T12:47:39.372Z,71.13
2018-12-26T12:50:23.474Z,78.17
2018-12-26T12:53:13.247Z,82.30
2018-12-26T12:55:56.963Z,79.10
2018-12-26T12:58:46.655Z,83.80
2018-12-26T13:01:28.540Z,76.47
2018-12-26T13:04:17.977Z,82.70
2018-12-26T13:07:01.738Z,80.83
2018-12-26T13:10:04.915Z,86.37
2018-12-26T13:12:24.333Z,93.86
2018-12-26T13:18:09.434Z,101.43
2018-12-26T13:20:51.832Z,91.30
2018-12-26T13:23:41.201Z,104.07
2018-12-26T13:26:24.808Z,96.03
2018-12-26T13:32:18.185Z,89.67
2018-12-26T13:35:07.833Z,93.30
2018-12-26T13:37:49.465Z,101.83
2018-12-26T13:40:38.753Z,100.67
2018-12-26T13:43:21.096Z,96.05
2018-12-26T13:49:11.729Z,100.75
2018-12-26T13:52:03.173Z,93.60
2018-12-26T13:54:45.602Z,105.65
2018-12-26T14:00:28.397Z,96.10
2018-12-26T14:03:10.996Z,104.37
2018-12-26T14:05:41.187Z,104.80
2018-12-26T14:08:30.886Z,103.85
2018-12-26T14:11:13.473Z,93.27
2018-12-26T14:14:03.167Z,95.97
2018-12-26T14:16:44.752Z,96.72
2018-12-26T14:19:34.462Z,98.27
2018-12-26T14:22:16.217Z,91.80
2018-12-26T14:27:54.803Z,92.30
2018-12-26T14:30:44.432Z,90.37
2018-12-26T14:33:26.840Z,88.77
2018-12-26T14:36:16.453Z,92.00
2018-12-26T14:41:56.987Z,84.53
2018-12-26T14:47:35.938Z,88.63
2018-12-26T14:50:26.043Z,86.20
2018-12-26T14:53:10.281Z,94.70
2018-12-26T14:55:59.693Z,87.13
2018-12-26T14:58:41.853Z,97.73
2018-12-26T15:01:31.342Z,95.60
2018-12-26T15:04:20.881Z,85.80
2018-12-26T15:07:02.759Z,72.23
2018-12-26T15:09:52.917Z,91.57
2018-12-26T15:12:35.134Z,89.87
2018-12-26T15:18:26.036Z,82.90
2018-12-26T15:21:16.140Z,85.93
2018-12-26T15:23:58.861Z,89.17
2018-12-26T15:29:57.052Z,92.43
2018-12-26T15:32:46.733Z,89.23
2018-12-26T15:38:22.986Z,83.13
2018-12-26T15:41:07.213Z,86.90
2018-12-26T15:43:56.835Z,82.50
2018-12-26T15:46:39.080Z,74.47
2018-12-26T15:49:28.770Z,76.03
2018-12-26T15:52:11.047Z,82.57
2018-12-26T15:55:00.696Z,86.33
2018-12-26T15:57:43.087Z,80.22
2018-12-26T16:03:34.286Z,79.05
2018-12-26T16:09:24.815Z,80.23
2018-12-26T16:12:35.930Z,76.50
2018-12-26T16:15:18.623Z,81.92
2018-12-26T16:18:08.024Z,91.97
2018-12-26T16:20:50.296Z,91.80
2018-12-26T16:23:39.902Z,86.77
2018-12-26T16:26:22.064Z,83.67
2018-12-26T16:32:01.082Z,88.10
2018-12-26T16:34:31.964Z,92.45
2018-12-26T16:37:21.947Z,88.27
2018-12-26T16:40:04.068Z,78.43
2018-12-26T16:42:53.725Z,87.93
2018-12-26T16:45:36.051Z,77.00
2018-12-26T16:48:26.488Z,72.78
2018-12-26T16:51:09.036Z,72.70
2018-12-26T16:53:58.697Z,70.23
2018-12-26T16:56:40.745Z,71.05
2018-12-26T16:59:30.462Z,59.60
2018-12-26T17:02:00.827Z,63.10
2018-12-26T17:07:38.254Z,56.77
2018-12-26T17:10:27.891Z,55.67
2018-12-26T17:13:11.147Z,51.43
2018-12-26T17:15:41.480Z,47.57
2018-12-26T17:18:31.387Z,56.73
2018-12-26T17:21:02.656Z,55.03
2018-12-26T17:23:52.758Z,51.97
2018-12-26T17:26:42.170Z,53.63
2018-12-26T17:32:32.662Z,54.23
2018-12-26T17:35:22.016Z,53.53
2018-12-26T17:38:03.833Z,52.20
2018-12-26T17:40:53.494Z,54.17
2018-12-26T17:43:35.538Z,58.58
2018-12-26T17:46:25.123Z,51.70
2018-12-26T17:52:24.015Z,53.17
2018-12-26T17:55:51.981Z,50.77
2018-12-26T17:58:36.395Z,58.90
2018-12-26T18:02:04.290Z,53.47
2018-12-26T18:04:47.002Z,56.60
2018-12-26T18:07:36.599Z,54.13
2018-12-26T18:10:20.783Z,53.93
2018-12-26T18:16:11.053Z,54.17
2018-12-26T18:19:01.183Z,58.13
2018-12-26T18:21:45.659Z,58.10
2018-12-26T18:24:37.165Z,56.48
2018-12-26T18:27:26.819Z,60.53
2018-12-26T18:30:10.228Z,49.30
2018-12-26T18:32:59.912Z,49.37
2018-12-26T18:35:44.284Z,48.37
2018-12-26T18:41:21.534Z,50.23
2018-12-26T18:44:11.228Z,49.63
2018-12-26T18:46:53.256Z,50.07
2018-12-26T18:49:42.891Z,42.90
2018-12-26T18:52:25.210Z,46.63
2018-12-26T18:55:14.826Z,45.30
2018-12-26T18:57:56.692Z,46.73
2018-12-26T19:00:46.742Z,48.93
2018-12-26T19:03:30.510Z,47.97
2018-12-26T19:09:10.794Z,46.97
2018-12-26T19:12:00.445Z,49.17
2018-12-26T19:14:42.984Z,44.25
2018-12-26T19:20:20.386Z,49.10
2018-12-26T19:23:11.810Z,43.57
2018-12-26T19:25:54.479Z,50.80
2018-12-26T19:28:44.141Z,46.37
2018-12-26T19:31:25.975Z,47.55
2018-12-26T19:34:17.463Z,46.10
2018-12-26T19:36:47.768Z,44.87
2018-12-26T19:39:39.182Z,45.70
2018-12-26T19:42:21.676Z,46.60
2018-12-26T19:45:11.422Z,45.38
2018-12-26T19:47:53.773Z,42.65
2018-12-26T19:50:43.382Z,42.08
2018-12-26T19:53:25.432Z,47.35
2018-12-26T19:56:17.132Z,43.48
2018-12-26T19:59:01.591Z,46.17
2018-12-26T20:01:51.260Z,43.43
2018-12-26T20:04:35.396Z,47.20
2018-12-26T20:10:12.535Z,46.20
2018-12-26T20:16:04.951Z,46.17
2018-12-26T20:18:48.307Z,47.63
2018-12-26T20:24:44.428Z,49.20
2018-12-26T20:30:28.487Z,53.73
2018-12-26T20:33:10.772Z,58.73
2018-12-26T20:35:53.142Z,51.73
2018-12-26T20:38:42.537Z,48.75
2018-12-26T20:41:24.521Z,54.80
2018-12-26T20:44:14.163Z,55.80
2018-12-26T20:46:56.612Z,51.00
2018-12-26T20:52:48.421Z,54.27
2018-12-26T20:55:38.125Z,53.93
2018-12-26T20:58:21.563Z,52.35
2018-12-26T21:00:51.853Z,55.13
2018-12-26T21:03:41.485Z,55.73
2018-12-26T21:06:23.522Z,53.80
2018-12-26T21:12:14.746Z,63.63
2018-12-26T21:15:04.414Z,64.50
2018-12-26T21:17:46.725Z,60.75
2018-12-26T21:20:55.523Z,65.30
2018-12-26T21:23:47.171Z,60.90
2018-12-26T21:26:31.719Z,67.13
2018-12-26T21:29:21.039Z,65.80
2018-12-26T21:32:14.033Z,72.53
2018-12-26T21:34:41.563Z,65.60
2018-12-26T21:37:11.806Z,65.57
2018-12-26T21:42:49.738Z,62.83
2018-12-26T21:45:39.469Z,64.53
2018-12-26T21:48:21.658Z,69.60
2018-12-26T21:51:11.018Z,73.93
2018-12-26T21:53:53.592Z,70.50
2018-12-26T21:59:27.197Z,70.10
2018-12-26T22:02:22.376Z,75.50
2018-12-26T22:05:00.696Z,77.30
2018-12-26T22:10:57.261Z,75.23
2018-12-26T22:13:46.889Z,78.20
2018-12-26T22:16:38.821Z,76.57
2018-12-26T22:19:21.009Z,76.10
2018-12-26T22:22:33.087Z,76.33
2018-12-26T22:25:15.324Z,79.37
2018-12-26T22:28:04.978Z,78.10
2018-12-26T22:30:46.983Z,79.73
2018-12-26T22:33:38.679Z,79.50
2018-12-26T22:36:21.074Z,79.07
2018-12-26T22:39:10.708Z,80.53
2018-12-26T22:41:52.626Z,77.77
2018-12-26T22:44:44.015Z,84.90
2018-12-26T22:47:27.823Z,81.22
2018-12-26T22:50:19.455Z,89.90
2018-12-26T22:53:01.707Z,83.10
2018-12-26T22:58:54.338Z,90.27
2018-12-26T23:01:43.924Z,91.13
2018-12-26T23:04:26.592Z,85.93
2018-12-26T23:07:16.190Z,86.43
2018-12-26T23:09:58.600Z,83.10
2018-12-26T23:12:48.284Z,80.17
2018-12-26T23:15:30.840Z,79.40
2018-12-26T23:18:20.656Z,80.70
2018-12-26T23:21:10.342Z,72.75
2018-12-26T23:23:52.434Z,77.07
2018-12-26T23:29:33.274Z,81.73
2018-12-26T23:32:23.177Z,73.12
2018-12-26T23:35:05.900Z,76.97
2018-12-26T23:38:16.218Z,74.13
2018-12-26T23:40:58.987Z,68.33
2018-12-26T23:43:41.709Z,70.97
2018-12-26T23:46:31.408Z,64.70
2018-12-26T23:49:12.958Z,66.53
2018-12-26T23:55:07.282Z,58.87
2018-12-26T23:57:56.965Z,61.57
